createdAt,value
2023-04-08T00:01:49.779Z,101584.56
2023-04-08T00:04:16.526Z,101588.81
2023-04-08T00:06:42.927Z,101583.19
2023-04-08T00:09:09.260Z,101591.69
2023-04-08T00:11:35.904Z,101584.44
2023-04-08T00:14:02.707Z,101583.69
2023-04-08T00:16:29.074Z,101595.19
2023-04-08T00:18:55.561Z,101587.94
2023-04-08T00:21:22.002Z,101584.31
2023-04-08T00:23:48.332Z,101590.06
2023-04-08T00:26:14.666Z,101585.69
2023-04-08T00:28:43.118Z,101594.31
2023-04-08T00:31:09.582Z,101584.19
2023-04-08T00:33:36.447Z,101596.44
2023-04-08T00:36:03.224Z,101589.22
2023-04-08T00:38:29.547Z,101592.69
2023-04-08T00:40:56.002Z,101594.22
2023-04-08T00:43:22.511Z,101585.69
2023-04-08T00:45:48.902Z,101589.94
2023-04-08T00:48:16.306Z,101587.81
2023-04-08T00:50:47.033Z,101581.31
2023-04-08T00:53:15.564Z,101589.22
2023-04-08T00:55:41.913Z,101591.97
2023-04-08T00:58:08.238Z,101594.22
2023-04-08T01:00:34.566Z,101591.22
2023-04-08T01:03:04.003Z,101591.22
2023-04-08T01:05:40.339Z,101585.47
2023-04-08T01:08:06.844Z,101583.97
2023-04-08T01:10:33.746Z,101583.97
2023-04-08T01:13:01.659Z,101584.69
2023-04-08T01:15:28.099Z,101589.69
2023-04-08T01:17:55.029Z,101576.72
2023-04-08T01:20:22.854Z,101588.22
2023-04-08T01:22:54.783Z,101592.44
2023-04-08T01:25:21.710Z,101592.44
2023-04-08T01:27:48.593Z,101593.84
2023-04-08T01:30:16.187Z,101599.59
2023-04-08T01:32:42.547Z,101590.97
2023-04-08T01:35:09.388Z,101593.09
2023-04-08T01:37:35.783Z,101591.59
2023-04-08T01:40:02.360Z,101585.84
2023-04-08T01:42:28.690Z,101587.97
2023-04-08T01:44:55.788Z,101586.50
2023-04-08T01:47:22.135Z,101603.72
2023-04-08T01:49:48.502Z,101606.59
2023-04-08T01:52:14.850Z,101599.34
2023-04-08T01:54:41.207Z,101605.09
2023-04-08T01:57:08.838Z,101595.72
2023-04-08T01:59:35.750Z,101609.34
2023-04-08T02:02:02.278Z,101606.47
2023-04-08T02:04:28.861Z,101612.22
2023-04-08T02:06:56.504Z,101613.59
2023-04-08T02:09:22.842Z,101614.97
2023-04-08T02:11:49.166Z,101625.09
2023-04-08T02:14:15.515Z,101620.72
2023-04-08T02:16:48.722Z,101615.59
2023-04-08T02:19:16.656Z,101621.34
2023-04-08T02:21:44.201Z,101607.72
2023-04-08T02:24:10.542Z,101609.09
2023-04-08T02:26:36.914Z,101611.25
2023-04-08T02:29:03.674Z,101604.72
2023-04-08T02:31:30.108Z,101600.47
2023-04-08T02:33:56.425Z,101604.72
2023-04-08T02:36:22.753Z,101614.72
2023-04-08T02:38:50.002Z,101626.97
2023-04-08T02:41:16.840Z,101626.22
2023-04-08T02:43:43.157Z,101626.22
2023-04-08T02:46:10.497Z,101636.25
2023-04-08T02:48:36.867Z,101640.59
2023-04-08T02:51:03.463Z,101647.97
2023-04-08T02:53:29.841Z,101636.59
2023-04-08T02:55:56.207Z,101636.72
2023-04-08T02:58:22.550Z,101630.97
2023-04-08T03:00:48.924Z,101636.72
2023-04-08T03:03:15.330Z,101635.44
2023-04-08T03:05:41.698Z,101636.97
2023-04-08T03:08:08.028Z,101636.97
2023-04-08T03:10:34.360Z,101632.69
2023-04-08T03:13:00.708Z,101639.22
2023-04-08T03:15:27.317Z,101639.84
2023-04-08T03:17:53.725Z,101642.72
2023-04-08T03:20:20.065Z,101645.72
2023-04-08T03:22:46.549Z,101652.94
2023-04-08T03:25:12.884Z,101652.94
2023-04-08T03:27:39.237Z,101648.72
2023-04-08T03:30:06.024Z,101651.59
2023-04-08T03:32:32.686Z,101657.47
2023-04-08T03:34:59.044Z,101651.72
2023-04-08T03:37:25.477Z,101654.59
2023-04-08T03:39:51.818Z,101652.47
2023-04-08T03:42:18.187Z,101655.34
2023-04-08T03:44:44.541Z,101663.22
2023-04-08T03:47:10.856Z,101650.19
2023-04-08T03:49:37.166Z,101657.47
2023-04-08T03:52:03.481Z,101664.69
2023-04-08T03:54:29.805Z,101654.59
2023-04-08T03:56:56.216Z,101670.44
2023-04-08T03:59:23.072Z,101672.72
2023-04-08T04:01:51.253Z,101667.69
2023-04-08T04:04:17.837Z,101666.31
2023-04-08T04:06:44.314Z,101663.44
2023-04-08T04:09:11.274Z,101673.59
2023-04-08T04:11:37.595Z,101674.94
2023-04-08T04:14:03.938Z,101674.94
2023-04-08T04:16:32.707Z,101679.34
2023-04-08T04:18:59.532Z,101679.34
2023-04-08T04:21:27.062Z,101674.19
2023-04-08T04:23:53.429Z,101697.94
2023-04-08T04:26:19.749Z,101696.47
2023-04-08T04:28:46.077Z,101694.31
2023-04-08T04:31:21.894Z,101705.22
2023-04-08T04:33:48.572Z,101695.94
2023-04-08T04:36:15.272Z,101695.19
2023-04-08T04:38:42.792Z,101696.72
2023-04-08T04:41:09.131Z,101709.69
2023-04-08T04:43:35.621Z,101708.97
2023-04-08T04:46:03.711Z,101712.56
2023-04-08T04:48:30.053Z,101710.31
2023-04-08T04:50:56.636Z,101720.47
2023-04-08T04:53:22.963Z,101718.19
2023-04-08T04:55:49.959Z,101718.94
2023-04-08T04:58:16.439Z,101723.94
2023-04-08T05:00:42.777Z,101721.31
2023-04-08T05:03:09.213Z,101721.72
2023-04-08T05:05:35.884Z,101730.69
2023-04-08T05:08:02.207Z,101727.69
2023-04-08T05:10:28.545Z,101738.59
2023-04-08T05:12:54.878Z,101738.44
2023-04-08T05:15:21.422Z,101740.19
2023-04-08T05:17:47.843Z,101748.22
2023-04-08T05:20:15.396Z,101750.34
2023-04-08T05:22:45.258Z,101753.22
2023-04-08T05:25:11.668Z,101745.94
2023-04-08T05:27:38.326Z,101757.44
2023-04-08T05:30:04.853Z,101759.44
2023-04-08T05:32:31.289Z,101760.09
2023-04-08T05:34:57.629Z,101757.09
2023-04-08T05:37:23.969Z,101764.34
2023-04-08T05:39:50.586Z,101765.84
2023-04-08T05:42:16.916Z,101768.72
2023-04-08T05:44:43.947Z,101775.97
2023-04-08T05:47:10.689Z,101773.84
2023-04-08T05:49:37.084Z,101778.97
2023-04-08T05:52:03.760Z,101773.47
2023-04-08T05:54:30.291Z,101771.69
2023-04-08T05:56:56.636Z,101773.22
2023-04-08T05:59:22.967Z,101779.72
2023-04-08T06:01:49.331Z,101774.72
2023-04-08T06:04:17.550Z,101774.22
2023-04-08T06:06:44.108Z,101777.22
2023-04-08T06:09:10.437Z,101782.97
2023-04-08T06:11:36.782Z,101793.84
2023-04-08T06:14:03.149Z,101795.97
2023-04-08T06:16:29.505Z,101801.72
2023-04-08T06:18:55.835Z,101798.97
2023-04-08T06:21:22.164Z,101803.47
2023-04-08T06:23:48.476Z,101802.84
2023-04-08T06:26:14.845Z,101794.97
2023-04-08T06:28:41.158Z,101794.97
2023-04-08T06:31:07.494Z,101804.97
2023-04-08T06:33:33.805Z,101805.72
2023-04-08T06:36:06.350Z,101807.84
2023-04-08T06:38:32.720Z,101812.22
2023-04-08T06:41:02.484Z,101817.97
2023-04-08T06:43:29.290Z,101822.22
2023-04-08T06:45:55.637Z,101824.50
2023-04-08T06:48:23.447Z,101825.25
2023-04-08T06:50:49.769Z,101826.72
2023-04-08T06:53:16.092Z,101836.88
2023-04-08T06:55:42.418Z,101839.75
2023-04-08T06:58:08.734Z,101841.25
2023-04-08T07:00:35.108Z,101844.88
2023-04-08T07:03:01.523Z,101853.50
2023-04-08T07:05:27.887Z,101854.25
2023-04-08T07:07:54.247Z,101847.00
2023-04-08T07:10:20.595Z,101857.00
2023-04-08T07:12:46.922Z,101855.50
2023-04-08T07:15:13.241Z,101859.75
2023-04-08T07:17:39.633Z,101866.25
2023-04-08T07:20:06.542Z,101855.50
2023-04-08T07:22:32.946Z,101857.00
2023-04-08T07:24:59.278Z,101858.50
2023-04-08T07:27:25.697Z,101864.25
2023-04-08T07:29:55.127Z,101868.75
2023-04-08T07:32:21.857Z,101860.25
2023-04-08T07:34:48.375Z,101873.00
2023-04-08T07:37:14.705Z,101867.88
2023-04-08T07:39:41.338Z,101880.25
2023-04-08T07:42:07.648Z,101883.63
2023-04-08T07:44:33.978Z,101886.19
2023-04-08T07:47:00.301Z,101881.72
2023-04-08T07:49:26.643Z,101869.38
2023-04-08T07:51:53.162Z,101882.63
2023-04-08T07:54:19.498Z,101888.50
2023-04-08T07:56:45.956Z,101884.13
2023-04-08T07:59:12.331Z,101892.03
2023-04-08T08:01:38.669Z,101891.00
2023-04-08T08:04:05.596Z,101899.78
2023-04-08T08:06:34.954Z,101897.16
2023-04-08T08:09:01.317Z,101904.16
2023-04-08T08:11:28.049Z,101910.31
2023-04-08T08:13:54.376Z,101908.09
2023-04-08T08:16:20.817Z,101913.81
2023-04-08T08:18:47.194Z,101905.44
2023-04-08T08:21:13.514Z,101901.22
2023-04-08T08:23:39.842Z,101900.88
2023-04-08T08:26:10.009Z,101905.38
2023-04-08T08:28:36.647Z,101911.25
2023-04-08T08:31:03.554Z,101901.50
2023-04-08T08:33:29.974Z,101916.91
2023-04-08T08:35:57.948Z,101904.66
2023-04-08T08:38:24.574Z,101911.88
2023-04-08T08:40:54.101Z,101912.03
2023-04-08T08:43:20.427Z,101917.78
2023-04-08T08:45:46.922Z,101921.56
2023-04-08T08:48:13.248Z,101922.13
2023-04-08T08:50:39.569Z,101923.06
2023-04-08T08:53:05.900Z,101921.13
2023-04-08T08:55:50.888Z,101933.78
2023-04-08T08:58:20.143Z,101932.66
2023-04-08T09:00:46.736Z,101932.03
2023-04-08T09:03:17.047Z,101933.53
2023-04-08T09:05:59.568Z,101934.41
2023-04-08T09:08:32.522Z,101938.78
2023-04-08T09:11:12.430Z,101942.31
2023-04-08T09:13:38.767Z,101948.31
2023-04-08T09:16:05.842Z,101953.31
2023-04-08T09:18:32.490Z,101951.31
2023-04-08T09:21:02.213Z,101947.81
2023-04-08T09:23:41.348Z,101955.69
2023-04-08T09:26:08.716Z,101955.84
2023-04-08T09:28:35.047Z,101958.84
2023-04-08T09:31:01.352Z,101959.47
2023-04-08T09:33:31.697Z,101963.06
2023-04-08T09:35:58.409Z,101965.22
2023-04-08T09:38:24.801Z,101965.34
2023-04-08T09:40:51.140Z,101970.34
2023-04-08T09:43:18.321Z,101974.72
2023-04-08T09:45:44.691Z,101964.59
2023-04-08T09:48:13.471Z,101970.34
2023-04-08T09:50:42.942Z,101973.84
2023-04-08T09:53:15.269Z,101978.97
2023-04-08T09:55:41.596Z,101973.34
2023-04-08T09:58:18.687Z,101979.22
2023-04-08T10:00:50.652Z,101974.97
2023-04-08T10:03:23.278Z,101973.59
2023-04-08T10:05:49.717Z,101982.09
2023-04-08T10:08:16.026Z,101984.88
2023-04-08T10:10:42.382Z,101981.34
2023-04-08T10:13:08.702Z,101979.47
2023-04-08T10:15:36.644Z,101971.72
2023-04-08T10:18:02.974Z,101975.13
2023-04-08T10:20:38.516Z,101979.34
2023-04-08T10:23:05.311Z,101977.25
2023-04-08T10:25:35.054Z,101986.34
2023-04-08T10:28:01.921Z,101976.34
2023-04-08T10:30:28.207Z,101981.34
2023-04-08T10:32:56.556Z,101981.34
2023-04-08T10:35:29.358Z,101992.13
2023-04-08T10:37:55.900Z,101986.34
2023-04-08T10:40:22.218Z,101979.22
2023-04-08T10:42:54.181Z,101980.59
2023-04-08T10:45:20.661Z,101974.84
2023-04-08T10:47:46.999Z,101979.13
2023-04-08T10:50:13.938Z,101982.09
2023-04-08T10:52:47.219Z,101990.72
2023-04-08T10:55:13.555Z,101987.09
2023-04-08T10:57:41.368Z,101986.34
2023-04-08T11:00:10.809Z,101984.97
2023-04-08T11:02:39.991Z,101989.63
2023-04-08T11:05:07.027Z,101978.75
2023-04-08T11:07:33.371Z,101981.13
2023-04-08T11:10:02.885Z,101978.13
2023-04-08T11:12:29.889Z,101972.38
2023-04-08T11:14:56.268Z,101978.25
2023-04-08T11:17:22.693Z,101979.88
2023-04-08T11:19:49.034Z,101984.88
2023-04-08T11:22:15.751Z,101981.88
2023-04-08T11:24:42.486Z,101977.34
2023-04-08T11:27:08.846Z,101985.38
2023-04-08T11:29:35.237Z,101982.50
2023-04-08T11:32:01.665Z,101989.63
2023-04-08T11:34:28.159Z,101978.88
2023-04-08T11:36:56.167Z,101989.44
2023-04-08T11:39:22.785Z,101991.97
2023-04-08T11:41:50.022Z,101982.94
2023-04-08T11:44:16.354Z,101988.78
2023-04-08T11:46:42.776Z,101989.81
2023-04-08T11:49:09.988Z,101997.44
2023-04-08T11:51:53.995Z,101991.50
2023-04-08T11:54:27.091Z,101982.44
2023-04-08T11:56:53.682Z,101982.75
2023-04-08T11:59:20.085Z,101985.06
2023-04-08T12:01:46.716Z,101985.59
2023-04-08T12:04:13.275Z,101977.34
2023-04-08T12:06:41.564Z,101978.84
2023-04-08T12:09:07.998Z,101980.34
2023-04-08T12:11:34.376Z,101975.84
2023-04-08T12:14:00.696Z,101977.84
2023-04-08T12:16:27.154Z,101980.59
2023-04-08T12:18:53.677Z,101979.13
2023-04-08T12:21:20.009Z,101983.03
2023-04-08T12:23:46.408Z,101979.84
2023-04-08T12:26:13.276Z,101978.22
2023-04-08T12:28:39.603Z,101970.59
2023-04-08T12:31:06.034Z,101972.09
2023-04-08T12:33:32.387Z,101975.59
2023-04-08T12:35:59.306Z,101976.34
2023-04-08T12:38:27.034Z,101974.97
2023-04-08T12:40:53.389Z,101975.84
2023-04-08T12:43:19.728Z,101973.59
2023-04-08T12:45:46.043Z,101986.50
2023-04-08T12:48:12.379Z,101980.75
2023-04-08T12:50:38.683Z,101977.84
2023-04-08T12:53:05.000Z,101975.13
2023-04-08T12:55:31.316Z,101972.84
2023-04-08T12:57:57.806Z,101969.34
2023-04-08T13:00:24.120Z,101975.13
2023-04-08T13:02:50.538Z,101963.59
2023-04-08T13:05:19.733Z,101972.09
2023-04-08T13:07:47.956Z,101966.34
2023-04-08T13:10:14.277Z,101969.34
2023-04-08T13:12:41.179Z,101969.34
2023-04-08T13:15:07.836Z,101968.72
2023-04-08T13:17:34.204Z,101962.34
2023-04-08T13:20:00.840Z,101958.84
2023-04-08T13:22:27.176Z,101953.09
2023-04-08T13:24:53.495Z,101959.59
2023-04-08T13:27:19.818Z,101954.88
2023-04-08T13:29:46.182Z,101954.59
2023-04-08T13:32:12.549Z,101959.00
2023-04-08T13:34:38.987Z,101954.59
2023-04-08T13:37:05.311Z,101958.84
2023-04-08T13:39:31.757Z,101952.22
2023-04-08T13:41:58.490Z,101951.59
2023-04-08T13:44:24.858Z,101957.47
2023-04-08T13:46:51.532Z,101950.97
2023-04-08T13:49:17.865Z,101950.97
2023-04-08T13:51:44.188Z,101945.81
2023-04-08T13:54:10.517Z,101944.59
2023-04-08T13:56:36.835Z,101947.63
2023-04-08T13:59:03.595Z,101952.75
2023-04-08T14:01:30.066Z,101942.75
2023-04-08T14:03:56.820Z,101953.38
2023-04-08T14:06:23.167Z,101946.88
2023-04-08T14:08:49.778Z,101951.38
2023-04-08T14:11:16.331Z,101947.25
2023-04-08T14:13:42.669Z,101954.53
2023-04-08T14:16:09.025Z,101948.00
2023-04-08T14:18:35.364Z,101946.00
2023-04-08T14:21:02.592Z,101948.13
2023-04-08T14:23:29.010Z,101945.38
2023-04-08T14:25:55.348Z,101943.13
2023-04-08T14:28:21.660Z,101947.66
2023-04-08T14:30:48.088Z,101941.88
2023-04-08T14:33:14.460Z,101943.38
2023-04-08T14:35:40.819Z,101944.91
2023-04-08T14:38:07.143Z,101943.50
2023-04-08T14:40:33.456Z,101939.13
2023-04-08T14:42:59.803Z,101944.13
2023-04-08T14:45:26.148Z,101935.47
2023-04-08T14:47:52.504Z,101942.00
2023-04-08T14:50:19.368Z,101930.38
2023-04-08T14:52:48.409Z,101939.00
2023-04-08T14:55:14.736Z,101933.38
2023-04-08T14:57:41.218Z,101936.25
2023-04-08T15:00:08.379Z,101944.91
2023-04-08T15:02:34.771Z,101935.38
2023-04-08T15:05:01.302Z,101938.38
2023-04-08T15:07:27.642Z,101937.75
2023-04-08T15:09:54.330Z,101934.88
2023-04-08T15:12:21.143Z,101940.63
2023-04-08T15:14:47.472Z,101937.75
2023-04-08T15:17:13.793Z,101934.13
2023-04-08T15:19:40.267Z,101934.88
2023-04-08T15:22:06.711Z,101937.63
2023-04-08T15:24:33.029Z,101939.13
2023-04-08T15:26:59.340Z,101941.88
2023-04-08T15:29:26.054Z,101937.63
2023-04-08T15:31:52.631Z,101935.38
2023-04-08T15:34:18.976Z,101942.63
2023-04-08T15:36:45.668Z,101936.88
2023-04-08T15:39:12.138Z,101935.38
2023-04-08T15:41:38.756Z,101938.25
2023-04-08T15:44:05.080Z,101938.88
2023-04-08T15:46:31.463Z,101935.38
2023-04-08T15:48:58.765Z,101937.63
2023-04-08T15:51:26.958Z,101938.88
2023-04-08T15:53:53.290Z,101939.63
2023-04-08T15:56:19.729Z,101940.38
2023-04-08T15:58:46.209Z,101940.50
2023-04-08T16:01:12.635Z,101940.63
2023-04-08T16:03:39.127Z,101946.66
2023-04-08T16:06:08.594Z,101943.38
2023-04-08T16:08:35.071Z,101936.31
2023-04-08T16:11:02.533Z,101939.47
2023-04-08T16:13:29.990Z,101946.53
2023-04-08T16:15:57.113Z,101943.06
2023-04-08T16:18:23.586Z,101950.09
2023-04-08T16:20:50.073Z,101949.59
2023-04-08T16:23:17.750Z,101948.22
2023-04-08T16:25:44.379Z,101951.38
2023-04-08T16:28:11.022Z,101949.88
2023-04-08T16:30:37.636Z,101951.38
2023-04-08T16:33:04.345Z,101954.25
2023-04-08T16:35:30.730Z,101960.63
2023-04-08T16:37:57.083Z,101959.28
2023-04-08T16:40:23.425Z,101957.16
2023-04-08T16:42:49.767Z,101964.25
2023-04-08T16:45:16.086Z,101967.13
2023-04-08T16:47:42.429Z,101964.91
2023-04-08T16:50:08.877Z,101969.88
2023-04-08T16:52:35.696Z,101974.13
2023-04-08T16:55:02.056Z,101970.50
2023-04-08T16:57:28.386Z,101980.03
2023-04-08T16:59:54.759Z,101973.25
2023-04-08T17:02:21.755Z,101979.75
2023-04-08T17:04:50.921Z,101994.88
2023-04-08T17:07:17.252Z,101992.66
2023-04-08T17:09:43.582Z,102003.63
2023-04-08T17:12:09.897Z,102008.38
2023-04-08T17:14:36.525Z,102003.38
2023-04-08T17:17:02.905Z,102014.88
2023-04-08T17:19:29.241Z,102007.75
2023-04-08T17:21:55.754Z,102013.75
2023-04-08T17:24:22.161Z,102016.75
2023-04-08T17:26:49.212Z,102019.63
2023-04-08T17:29:15.558Z,102024.78
2023-04-08T17:31:42.066Z,102030.53
2023-04-08T17:34:08.449Z,102038.41
2023-04-08T17:36:34.781Z,102039.16
2023-04-08T17:39:01.292Z,102051.41
2023-04-08T17:41:39.025Z,102058.56
2023-04-08T17:44:06.697Z,102051.28
2023-04-08T17:46:33.308Z,102057.19
2023-04-08T17:48:59.979Z,102070.81
2023-04-08T17:51:26.363Z,102084.47
2023-04-08T17:53:52.926Z,102080.06
2023-04-08T17:56:19.462Z,102085.19
2023-04-08T17:58:48.147Z,102097.47
2023-04-08T18:01:15.278Z,102100.19
2023-04-08T18:03:42.139Z,102111.72
2023-04-08T18:06:08.992Z,102114.44
2023-04-08T18:08:35.733Z,102118.72
2023-04-08T18:11:05.643Z,102120.84
2023-04-08T18:13:31.985Z,102130.22
2023-04-08T18:15:58.333Z,102132.97
2023-04-08T18:18:25.005Z,102143.88
2023-04-08T18:20:51.355Z,102143.22
2023-04-08T18:23:17.683Z,102147.50
2023-04-08T18:25:46.918Z,102144.75
2023-04-08T18:28:13.252Z,102144.75
2023-04-08T18:30:39.585Z,102154.88
2023-04-08T18:33:06.593Z,102162.16
2023-04-08T18:35:32.931Z,102166.53
2023-04-08T18:37:59.314Z,102175.78
2023-04-08T18:40:25.680Z,102181.53
2023-04-08T18:42:51.995Z,102181.53
2023-04-08T18:45:18.651Z,102176.53
2023-04-08T18:47:44.984Z,102188.03
2023-04-08T18:50:11.351Z,102189.53
2023-04-08T18:52:38.815Z,102186.66
2023-04-08T18:55:05.327Z,102184.28
2023-04-08T18:57:31.662Z,102192.28
2023-04-08T18:59:58.030Z,102185.78
2023-04-08T19:02:24.521Z,102190.78
2023-04-08T19:04:51.976Z,102196.53
2023-04-08T19:07:18.300Z,102190.94
2023-04-08T19:09:44.653Z,102199.69
2023-04-08T19:12:10.982Z,102198.16
2023-04-08T19:14:37.415Z,102201.06
2023-04-08T19:17:03.864Z,102204.06
2023-04-08T19:19:30.193Z,102208.34
2023-04-08T19:21:56.518Z,102208.34
2023-04-08T19:24:22.863Z,102204.06
2023-04-08T19:26:50.689Z,102213.19
2023-04-08T19:29:19.410Z,102206.81
2023-04-08T19:31:45.949Z,102209.53
2023-04-08T19:34:12.532Z,102204.69
2023-04-08T19:36:38.877Z,102207.56
2023-04-08T19:39:05.875Z,102205.44
2023-04-08T19:41:32.208Z,102205.31
2023-04-08T19:43:58.528Z,102202.44
2023-04-08T19:46:24.903Z,102206.81
2023-04-08T19:48:51.276Z,102203.78
2023-04-08T19:51:20.184Z,102205.31
2023-04-08T19:53:46.872Z,102208.81
2023-04-08T19:56:13.506Z,102213.06
2023-04-08T19:58:39.837Z,102215.94
2023-04-08T20:01:07.357Z,102210.94
2023-04-08T20:03:33.872Z,102213.06
2023-04-08T20:06:00.833Z,102213.81
2023-04-08T20:08:27.194Z,102210.94
2023-04-08T20:10:53.938Z,102203.03
2023-04-08T20:13:20.648Z,102213.81
2023-04-08T20:15:47.015Z,102214.69
2023-04-08T20:18:16.143Z,102213.19
2023-04-08T20:20:42.930Z,102228.34
2023-04-08T20:23:09.273Z,102220.31
2023-04-08T20:25:35.632Z,102205.31
2023-04-08T20:28:01.986Z,102206.81
2023-04-08T20:30:28.499Z,102218.31
2023-04-08T20:32:54.898Z,102222.56
2023-04-08T20:35:22.090Z,102219.69
2023-04-08T20:37:48.568Z,102222.56
2023-04-08T20:40:16.444Z,102216.81
2023-04-08T20:42:44.480Z,102213.94
2023-04-08T20:45:11.633Z,102222.56
2023-04-08T20:47:38.584Z,102221.06
2023-04-08T20:50:05.417Z,102230.31
2023-04-08T20:52:31.842Z,102219.56
2023-04-08T20:54:58.224Z,102218.81
2023-04-08T20:57:24.641Z,102223.78
2023-04-08T20:59:51.256Z,102218.03
2023-04-08T21:02:20.677Z,102221.56
2023-04-08T21:04:47.281Z,102224.44
2023-04-08T21:07:13.590Z,102224.28
2023-04-08T21:09:39.915Z,102213.53
2023-04-08T21:12:06.250Z,102218.53
2023-04-08T21:14:32.681Z,102227.16
2023-04-08T21:16:59.012Z,102227.78
2023-04-08T21:19:25.366Z,102230.66
2023-04-08T21:21:51.680Z,102223.41
2023-04-08T21:24:17.994Z,102232.03
2023-04-08T21:26:44.417Z,102224.75
2023-04-08T21:29:11.424Z,102230.50
2023-04-08T21:31:37.993Z,102224.00
2023-04-08T21:34:06.003Z,102230.50
2023-04-08T21:36:32.335Z,102234.75
2023-04-08T21:38:58.664Z,102234.63
2023-04-08T21:41:25.001Z,102240.38
2023-04-08T21:43:51.407Z,102230.25
2023-04-08T21:46:17.852Z,102228.72
2023-04-08T21:48:44.300Z,102220.09
2023-04-08T21:51:14.461Z,102230.13
2023-04-08T21:53:40.925Z,102233.00
2023-04-08T21:56:07.807Z,102233.00
2023-04-08T21:58:35.363Z,102225.72
2023-04-08T22:01:01.809Z,102237.22
2023-04-08T22:03:28.237Z,102230.72
2023-04-08T22:05:54.658Z,102234.19
2023-04-08T22:08:21.045Z,102225.56
2023-04-08T22:10:47.739Z,102229.81
2023-04-08T22:13:17.278Z,102226.19
2023-04-08T22:15:43.586Z,102222.56
2023-04-08T22:18:09.911Z,102218.19
2023-04-08T22:20:36.590Z,102218.94
2023-04-08T22:23:03.187Z,102221.06
2023-04-08T22:25:29.505Z,102223.19
2023-04-08T22:27:56.055Z,102222.44
2023-04-08T22:30:22.420Z,102212.28
2023-04-08T22:32:48.772Z,102215.16
2023-04-08T22:35:15.312Z,102213.66
2023-04-08T22:37:41.711Z,102213.66
2023-04-08T22:40:08.408Z,102209.91
2023-04-08T22:42:34.750Z,102210.66
2023-04-08T22:45:01.116Z,102209.13
2023-04-08T22:47:27.438Z,102203.38
2023-04-08T22:49:53.776Z,102207.63
2023-04-08T22:52:20.107Z,102213.38
2023-04-08T22:54:46.446Z,102209.75
2023-04-08T22:57:12.776Z,102211.09
2023-04-08T22:59:39.117Z,102208.22
2023-04-08T23:02:05.533Z,102203.09
2023-04-08T23:04:32.082Z,102208.09
2023-04-08T23:06:58.566Z,102208.84
2023-04-08T23:09:26.653Z,102207.34
2023-04-08T23:11:52.983Z,102212.34
2023-04-08T23:14:19.340Z,102211.59
2023-04-08T23:16:45.669Z,102210.81
2023-04-08T23:19:12.026Z,102215.84
2023-04-08T23:21:38.358Z,102211.47
2023-04-08T23:24:04.752Z,102212.22
2023-04-08T23:26:31.085Z,102207.06
2023-04-08T23:28:57.435Z,102205.56
2023-04-08T23:31:23.805Z,102206.31
2023-04-08T23:33:50.162Z,102201.16
2023-04-08T23:36:16.520Z,102198.28
2023-04-08T23:38:42.953Z,102196.78
2023-04-08T23:41:09.282Z,102208.31
2023-04-08T23:43:36.190Z,102207.56
2023-04-08T23:46:02.619Z,102203.91
2023-04-08T23:48:28.942Z,102198.78
2023-04-08T23:50:55.290Z,102205.28
2023-04-08T23:53:21.617Z,102196.50
2023-04-08T23:55:47.940Z,102201.50
2023-04-08T23:58:14.261Z,102200.00
